sensor_id;sensor_type;location;lat;lon;timestamp;P1;durP1;ratioP1;P2;durP2;ratioP2
18695;SDS011;22617;43.690;27.956;2023-06-10T00:00:05;5.97;;;4.00;;
18695;SDS011;22617;43.690;27.956;2023-06-10T00:05:13;6.07;;;4.03;;
18695;SDS011;22617;43.690;27.956;2023-06-10T00:10:20;6.78;;;4.00;;
18695;SDS011;22617;43.690;27.956;2023-06-10T00:15:24;5.37;;;3.70;;
18695;SDS011;22617;43.690;27.956;2023-06-10T00:20:28;5.07;;;3.60;;
18695;SDS011;22617;43.690;27.956;2023-06-10T00:25:37;6.22;;;3.90;;
18695;SDS011;22617;43.690;27.956;2023-06-10T00:30:43;5.90;;;4.10;;
18695;SDS011;22617;43.690;27.956;2023-06-10T00:35:47;5.68;;;3.90;;
18695;SDS011;22617;43.690;27.956;2023-06-10T00:40:55;9.63;;;4.32;;
18695;SDS011;22617;43.690;27.956;2023-06-10T00:46:02;5.20;;;3.85;;
18695;SDS011;22617;43.690;27.956;2023-06-10T00:51:15;5.70;;;3.95;;
18695;SDS011;22617;43.690;27.956;2023-06-10T00:56:22;7.33;;;4.33;;
18695;SDS011;22617;43.690;27.956;2023-06-10T01:01:30;7.75;;;4.55;;
18695;SDS011;22617;43.690;27.956;2023-06-10T01:06:40;8.00;;;4.60;;
18695;SDS011;22617;43.690;27.956;2023-06-10T01:12:01;10.07;;;5.60;;
18695;SDS011;22617;43.690;27.956;2023-06-10T01:17:12;7.10;;;4.60;;
18695;SDS011;22617;43.690;27.956;2023-06-10T01:22:22;5.60;;;4.33;;
18695;SDS011;22617;43.690;27.956;2023-06-10T01:27:38;7.93;;;4.77;;
18695;SDS011;22617;43.690;27.956;2023-06-10T01:32:47;7.00;;;4.37;;
18695;SDS011;22617;43.690;27.956;2023-06-10T01:38:00;7.77;;;4.30;;
18695;SDS011;22617;43.690;27.956;2023-06-10T01:43:08;5.87;;;4.13;;
18695;SDS011;22617;43.690;27.956;2023-06-10T01:48:21;9.60;;;4.78;;
18695;SDS011;22617;43.690;27.956;2023-06-10T01:53:36;9.10;;;4.95;;
18695;SDS011;22617;43.690;27.956;2023-06-10T01:58:39;6.20;;;4.30;;
18695;SDS011;22617;43.690;27.956;2023-06-10T02:03:44;8.43;;;4.97;;
18695;SDS011;22617;43.690;27.956;2023-06-10T02:09:00;5.60;;;4.23;;
18695;SDS011;22617;43.690;27.956;2023-06-10T02:14:17;6.47;;;4.40;;
18695;SDS011;22617;43.690;27.956;2023-06-10T02:19:55;9.77;;;4.73;;
18695;SDS011;22617;43.690;27.956;2023-06-10T02:25:03;8.50;;;5.00;;
18695;SDS011;22617;43.690;27.956;2023-06-10T02:30:08;8.27;;;5.10;;
18695;SDS011;22617;43.690;27.956;2023-06-10T02:35:12;5.90;;;4.00;;
18695;SDS011;22617;43.690;27.956;2023-06-10T02:40:18;6.50;;;4.23;;
18695;SDS011;22617;43.690;27.956;2023-06-10T02:45:22;12.63;;;5.53;;
18695;SDS011;22617;43.690;27.956;2023-06-10T02:50:26;8.60;;;5.50;;
18695;SDS011;22617;43.690;27.956;2023-06-10T02:55:39;7.03;;;5.00;;
18695;SDS011;22617;43.690;27.956;2023-06-10T03:00:46;8.53;;;5.03;;
18695;SDS011;22617;43.690;27.956;2023-06-10T03:05:51;8.03;;;5.50;;
18695;SDS011;22617;43.690;27.956;2023-06-10T03:10:57;7.68;;;4.90;;
18695;SDS011;22617;43.690;27.956;2023-06-10T03:16:03;10.73;;;5.23;;
18695;SDS011;22617;43.690;27.956;2023-06-10T03:21:11;9.20;;;5.90;;
18695;SDS011;22617;43.690;27.956;2023-06-10T03:26:17;10.17;;;5.97;;
18695;SDS011;22617;43.690;27.956;2023-06-10T03:31:24;7.60;;;5.00;;
18695;SDS011;22617;43.690;27.956;2023-06-10T03:36:29;9.60;;;5.87;;
18695;SDS011;22617;43.690;27.956;2023-06-10T03:41:34;5.53;;;4.40;;
18695;SDS011;22617;43.690;27.956;2023-06-10T03:46:40;7.90;;;4.90;;
18695;SDS011;22617;43.690;27.956;2023-06-10T03:51:44;9.55;;;5.43;;
18695;SDS011;22617;43.690;27.956;2023-06-10T03:56:50;9.50;;;6.27;;
18695;SDS011;22617;43.690;27.956;2023-06-10T04:01:54;9.52;;;5.35;;
18695;SDS011;22617;43.690;27.956;2023-06-10T04:06:58;46.47;;;21.58;;
18695;SDS011;22617;43.690;27.956;2023-06-10T04:12:03;17.83;;;10.18;;
18695;SDS011;22617;43.690;27.956;2023-06-10T04:17:08;10.40;;;6.45;;
18695;SDS011;22617;43.690;27.956;2023-06-10T04:22:12;8.52;;;4.75;;
18695;SDS011;22617;43.690;27.956;2023-06-10T04:27:17;9.05;;;5.18;;
18695;SDS011;22617;43.690;27.956;2023-06-10T04:32:21;8.50;;;4.90;;
18695;SDS011;22617;43.690;27.956;2023-06-10T04:37:25;8.10;;;4.78;;
18695;SDS011;22617;43.690;27.956;2023-06-10T04:42:33;12.23;;;4.65;;
18695;SDS011;22617;43.690;27.956;2023-06-10T04:47:36;7.57;;;4.35;;
18695;SDS011;22617;43.690;27.956;2023-06-10T04:52:41;8.82;;;4.70;;
18695;SDS011;22617;43.690;27.956;2023-06-10T04:57:47;7.72;;;3.95;;
18695;SDS011;22617;43.690;27.956;2023-06-10T05:02:53;9.55;;;4.50;;
18695;SDS011;22617;43.690;27.956;2023-06-10T05:07:58;5.75;;;3.95;;
18695;SDS011;22617;43.690;27.956;2023-06-10T05:13:03;6.47;;;3.75;;
18695;SDS011;22617;43.690;27.956;2023-06-10T05:18:07;7.43;;;3.88;;
18695;SDS011;22617;43.690;27.956;2023-06-10T05:23:11;6.70;;;4.05;;
18695;SDS011;22617;43.690;27.956;2023-06-10T05:28:16;8.55;;;3.10;;
18695;SDS011;22617;43.690;27.956;2023-06-10T05:33:20;8.40;;;3.40;;
18695;SDS011;22617;43.690;27.956;2023-06-10T05:38:23;5.65;;;2.60;;
18695;SDS011;22617;43.690;27.956;2023-06-10T05:43:29;4.88;;;3.00;;
18695;SDS011;22617;43.690;27.956;2023-06-10T05:48:32;5.47;;;3.38;;
18695;SDS011;22617;43.690;27.956;2023-06-10T05:53:36;6.68;;;3.35;;
18695;SDS011;22617;43.690;27.956;2023-06-10T05:58:41;4.57;;;3.00;;
18695;SDS011;22617;43.690;27.956;2023-06-10T06:03:45;4.35;;;2.83;;
18695;SDS011;22617;43.690;27.956;2023-06-10T06:08:49;5.50;;;2.45;;
18695;SDS011;22617;43.690;27.956;2023-06-10T06:13:54;6.88;;;2.72;;
18695;SDS011;22617;43.690;27.956;2023-06-10T06:18:57;5.25;;;2.80;;
18695;SDS011;22617;43.690;27.956;2023-06-10T06:24:01;4.32;;;2.40;;
18695;SDS011;22617;43.690;27.956;2023-06-10T06:29:07;5.00;;;2.65;;
18695;SDS011;22617;43.690;27.956;2023-06-10T06:34:10;6.32;;;2.65;;
18695;SDS011;22617;43.690;27.956;2023-06-10T06:39:17;7.25;;;2.60;;
18695;SDS011;22617;43.690;27.956;2023-06-10T06:44:23;5.63;;;2.55;;
18695;SDS011;22617;43.690;27.956;2023-06-10T06:49:27;4.55;;;2.72;;
18695;SDS011;22617;43.690;27.956;2023-06-10T06:54:31;5.72;;;2.50;;
18695;SDS011;22617;43.690;27.956;2023-06-10T06:59:36;4.63;;;2.63;;
18695;SDS011;22617;43.690;27.956;2023-06-10T07:04:40;4.53;;;2.50;;
18695;SDS011;22617;43.690;27.956;2023-06-10T07:09:44;3.53;;;2.42;;
18695;SDS011;22617;43.690;27.956;2023-06-10T07:14:49;6.40;;;2.63;;
18695;SDS011;22617;43.690;27.956;2023-06-10T07:19:53;4.63;;;2.53;;
18695;SDS011;22617;43.690;27.956;2023-06-10T07:24:59;4.15;;;2.42;;
18695;SDS011;22617;43.690;27.956;2023-06-10T07:30:07;4.28;;;2.65;;
18695;SDS011;22617;43.690;27.956;2023-06-10T07:35:13;5.63;;;2.40;;
18695;SDS011;22617;43.690;27.956;2023-06-10T07:40:17;5.65;;;2.30;;
18695;SDS011;22617;43.690;27.956;2023-06-10T07:45:22;3.40;;;2.30;;
18695;SDS011;22617;43.690;27.956;2023-06-10T07:50:25;5.43;;;2.75;;
18695;SDS011;22617;43.690;27.956;2023-06-10T07:55:29;4.00;;;2.40;;
18695;SDS011;22617;43.690;27.956;2023-06-10T08:00:34;5.00;;;2.17;;
18695;SDS011;22617;43.690;27.956;2023-06-10T08:05:39;6.07;;;2.50;;
18695;SDS011;22617;43.690;27.956;2023-06-10T08:10:43;3.90;;;2.50;;
18695;SDS011;22617;43.690;27.956;2023-06-10T08:15:48;7.13;;;2.55;;
18695;SDS011;22617;43.690;27.956;2023-06-10T08:20:52;3.80;;;2.30;;
18695;SDS011;22617;43.690;27.956;2023-06-10T08:25:56;5.72;;;2.40;;
18695;SDS011;22617;43.690;27.956;2023-06-10T08:31:01;5.35;;;2.63;;
18695;SDS011;22617;43.690;27.956;2023-06-10T08:36:04;7.18;;;3.10;;
18695;SDS011;22617;43.690;27.956;2023-06-10T08:41:08;7.35;;;2.80;;
18695;SDS011;22617;43.690;27.956;2023-06-10T08:46:17;8.60;;;2.78;;
18695;SDS011;22617;43.690;27.956;2023-06-10T08:51:21;7.32;;;2.92;;
18695;SDS011;22617;43.690;27.956;2023-06-10T08:56:27;4.28;;;2.55;;
18695;SDS011;22617;43.690;27.956;2023-06-10T09:01:34;5.20;;;2.88;;
18695;SDS011;22617;43.690;27.956;2023-06-10T09:06:39;8.68;;;3.10;;
18695;SDS011;22617;43.690;27.956;2023-06-10T09:11:43;4.82;;;2.95;;
18695;SDS011;22617;43.690;27.956;2023-06-10T09:16:50;5.15;;;3.00;;
18695;SDS011;22617;43.690;27.956;2023-06-10T09:21:53;7.47;;;3.22;;
18695;SDS011;22617;43.690;27.956;2023-06-10T09:27:03;10.27;;;3.33;;
18695;SDS011;22617;43.690;27.956;2023-06-10T09:32:09;4.65;;;3.30;;
18695;SDS011;22617;43.690;27.956;2023-06-10T09:37:13;6.07;;;3.47;;
18695;SDS011;22617;43.690;27.956;2023-06-10T09:42:23;4.97;;;3.05;;
18695;SDS011;22617;43.690;27.956;2023-06-10T09:47:28;6.90;;;3.60;;
18695;SDS011;22617;43.690;27.956;2023-06-10T09:52:32;6.10;;;3.88;;
18695;SDS011;22617;43.690;27.956;2023-06-10T09:57:36;16.52;;;10.10;;
18695;SDS011;22617;43.690;27.956;2023-06-10T10:02:46;7.90;;;4.38;;
18695;SDS011;22617;43.690;27.956;2023-06-10T10:07:51;16.42;;;7.97;;
18695;SDS011;22617;43.690;27.956;2023-06-10T10:12:55;7.35;;;3.95;;
18695;SDS011;22617;43.690;27.956;2023-06-10T10:18:04;9.18;;;4.63;;
18695;SDS011;22617;43.690;27.956;2023-06-10T10:23:10;6.70;;;3.08;;
18695;SDS011;22617;43.690;27.956;2023-06-10T10:28:17;5.75;;;3.10;;
18695;SDS011;22617;43.690;27.956;2023-06-10T10:33:26;7.40;;;3.50;;
18695;SDS011;22617;43.690;27.956;2023-06-10T10:38:36;9.95;;;2.92;;
18695;SDS011;22617;43.690;27.956;2023-06-10T10:43:40;6.30;;;3.65;;
18695;SDS011;22617;43.690;27.956;2023-06-10T10:48:47;6.53;;;3.90;;
18695;SDS011;22617;43.690;27.956;2023-06-10T10:54:10;8.27;;;3.15;;
18695;SDS011;22617;43.690;27.956;2023-06-10T10:59:15;6.47;;;3.00;;
18695;SDS011;22617;43.690;27.956;2023-06-10T11:04:23;8.90;;;3.80;;
18695;SDS011;22617;43.690;27.956;2023-06-10T11:09:29;5.60;;;3.15;;
18695;SDS011;22617;43.690;27.956;2023-06-10T11:14:33;8.27;;;3.22;;
18695;SDS011;22617;43.690;27.956;2023-06-10T11:19:38;6.03;;;3.17;;
18695;SDS011;22617;43.690;27.956;2023-06-10T11:24:49;6.43;;;3.88;;
18695;SDS011;22617;43.690;27.956;2023-06-10T11:30:17;7.15;;;3.15;;
18695;SDS011;22617;43.690;27.956;2023-06-10T11:35:24;6.53;;;3.28;;
18695;SDS011;22617;43.690;27.956;2023-06-10T11:40:29;4.30;;;2.70;;
18695;SDS011;22617;43.690;27.956;2023-06-10T11:45:33;5.80;;;2.72;;
18695;SDS011;22617;43.690;27.956;2023-06-10T11:50:38;6.00;;;3.30;;
18695;SDS011;22617;43.690;27.956;2023-06-10T11:55:44;8.20;;;2.78;;
18695;SDS011;22617;43.690;27.956;2023-06-10T12:00:49;10.95;;;3.00;;
18695;SDS011;22617;43.690;27.956;2023-06-10T12:05:56;7.10;;;3.10;;
18695;SDS011;22617;43.690;27.956;2023-06-10T12:11:00;6.80;;;3.30;;
18695;SDS011;22617;43.690;27.956;2023-06-10T12:16:07;4.10;;;3.00;;
18695;SDS011;22617;43.690;27.956;2023-06-10T12:21:17;8.98;;;3.20;;
18695;SDS011;22617;43.690;27.956;2023-06-10T12:26:33;5.50;;;2.70;;
18695;SDS011;22617;43.690;27.956;2023-06-10T12:31:55;6.18;;;3.22;;
18695;SDS011;22617;43.690;27.956;2023-06-10T12:37:02;3.85;;;2.88;;
18695;SDS011;22617;43.690;27.956;2023-06-10T12:42:08;7.50;;;3.30;;
18695;SDS011;22617;43.690;27.956;2023-06-10T12:47:12;5.80;;;3.83;;
18695;SDS011;22617;43.690;27.956;2023-06-10T12:52:17;6.95;;;2.65;;
18695;SDS011;22617;43.690;27.956;2023-06-10T12:57:21;8.57;;;2.92;;
18695;SDS011;22617;43.690;27.956;2023-06-10T13:02:25;6.28;;;3.50;;
18695;SDS011;22617;43.690;27.956;2023-06-10T13:07:30;5.22;;;2.90;;
18695;SDS011;22617;43.690;27.956;2023-06-10T13:12:34;5.80;;;2.97;;
18695;SDS011;22617;43.690;27.956;2023-06-10T13:17:48;7.47;;;2.90;;
18695;SDS011;22617;43.690;27.956;2023-06-10T13:22:54;8.60;;;3.00;;
18695;SDS011;22617;43.690;27.956;2023-06-10T13:27:59;5.63;;;2.67;;
18695;SDS011;22617;43.690;27.956;2023-06-10T13:33:03;5.40;;;2.75;;
18695;SDS011;22617;43.690;27.956;2023-06-10T13:38:08;6.95;;;3.45;;
18695;SDS011;22617;43.690;27.956;2023-06-10T13:43:12;7.70;;;4.00;;
18695;SDS011;22617;43.690;27.956;2023-06-10T13:48:17;4.95;;;3.80;;
18695;SDS011;22617;43.690;27.956;2023-06-10T13:53:23;12.52;;;4.18;;
18695;SDS011;22617;43.690;27.956;2023-06-10T13:58:27;8.32;;;4.35;;
18695;SDS011;22617;43.690;27.956;2023-06-10T14:03:31;13.13;;;4.60;;
18695;SDS011;22617;43.690;27.956;2023-06-10T14:08:36;12.25;;;4.78;;
18695;SDS011;22617;43.690;27.956;2023-06-10T14:13:43;11.13;;;4.93;;
18695;SDS011;22617;43.690;27.956;2023-06-10T14:18:47;9.05;;;4.90;;
18695;SDS011;22617;43.690;27.956;2023-06-10T14:23:53;11.52;;;5.70;;
18695;SDS011;22617;43.690;27.956;2023-06-10T14:28:57;10.57;;;5.57;;
18695;SDS011;22617;43.690;27.956;2023-06-10T14:34:01;10.93;;;5.47;;
18695;SDS011;22617;43.690;27.956;2023-06-10T14:39:06;16.10;;;5.72;;
18695;SDS011;22617;43.690;27.956;2023-06-10T14:44:10;11.77;;;5.70;;
18695;SDS011;22617;43.690;27.956;2023-06-10T14:49:14;10.85;;;5.70;;
18695;SDS011;22617;43.690;27.956;2023-06-10T14:54:19;17.63;;;5.90;;
18695;SDS011;22617;43.690;27.956;2023-06-10T14:59:23;13.98;;;6.32;;
18695;SDS011;22617;43.690;27.956;2023-06-10T15:04:27;14.95;;;5.45;;
18695;SDS011;22617;43.690;27.956;2023-06-10T15:09:32;11.93;;;5.80;;
18695;SDS011;22617;43.690;27.956;2023-06-10T15:14:36;10.57;;;5.97;;
18695;SDS011;22617;43.690;27.956;2023-06-10T15:19:40;10.77;;;5.78;;
18695;SDS011;22617;43.690;27.956;2023-06-10T15:24:45;10.85;;;6.13;;
18695;SDS011;22617;43.690;27.956;2023-06-10T15:29:49;10.68;;;6.07;;
18695;SDS011;22617;43.690;27.956;2023-06-10T15:34:53;12.07;;;5.90;;
18695;SDS011;22617;43.690;27.956;2023-06-10T15:39:58;9.70;;;5.32;;
18695;SDS011;22617;43.690;27.956;2023-06-10T15:45:03;10.50;;;5.40;;
18695;SDS011;22617;43.690;27.956;2023-06-10T15:50:07;10.68;;;5.63;;
18695;SDS011;22617;43.690;27.956;2023-06-10T15:55:13;10.75;;;5.13;;
18695;SDS011;22617;43.690;27.956;2023-06-10T16:00:17;8.95;;;5.18;;
18695;SDS011;22617;43.690;27.956;2023-06-10T16:05:22;6.80;;;4.47;;
18695;SDS011;22617;43.690;27.956;2023-06-10T16:10:27;12.27;;;5.00;;
18695;SDS011;22617;43.690;27.956;2023-06-10T16:15:31;10.38;;;4.30;;
18695;SDS011;22617;43.690;27.956;2023-06-10T16:20:35;10.52;;;4.80;;
18695;SDS011;22617;43.690;27.956;2023-06-10T16:25:40;5.60;;;4.15;;
18695;SDS011;22617;43.690;27.956;2023-06-10T16:30:47;9.35;;;5.10;;
18695;SDS011;22617;43.690;27.956;2023-06-10T16:35:51;7.78;;;4.95;;
18695;SDS011;22617;43.690;27.956;2023-06-10T16:40:56;10.30;;;5.18;;
18695;SDS011;22617;43.690;27.956;2023-06-10T16:46:00;6.32;;;4.45;;
18695;SDS011;22617;43.690;27.956;2023-06-10T16:51:04;10.57;;;4.40;;
18695;SDS011;22617;43.690;27.956;2023-06-10T16:56:09;9.20;;;4.60;;
18695;SDS011;22617;43.690;27.956;2023-06-10T17:01:15;10.48;;;4.85;;
18695;SDS011;22617;43.690;27.956;2023-06-10T17:06:19;7.25;;;4.85;;
18695;SDS011;22617;43.690;27.956;2023-06-10T17:11:24;11.05;;;5.47;;
18695;SDS011;22617;43.690;27.956;2023-06-10T17:16:28;9.63;;;4.97;;
18695;SDS011;22617;43.690;27.956;2023-06-10T17:21:32;7.68;;;5.10;;
18695;SDS011;22617;43.690;27.956;2023-06-10T17:26:38;8.77;;;5.32;;
18695;SDS011;22617;43.690;27.956;2023-06-10T17:31:42;7.00;;;4.95;;
18695;SDS011;22617;43.690;27.956;2023-06-10T17:36:46;7.95;;;5.07;;
18695;SDS011;22617;43.690;27.956;2023-06-10T17:41:51;13.18;;;6.05;;
18695;SDS011;22617;43.690;27.956;2023-06-10T17:46:55;10.68;;;5.90;;
18695;SDS011;22617;43.690;27.956;2023-06-10T17:51:59;9.85;;;5.80;;
18695;SDS011;22617;43.690;27.956;2023-06-10T17:57:04;9.20;;;5.65;;
18695;SDS011;22617;43.690;27.956;2023-06-10T18:02:08;16.13;;;7.60;;
18695;SDS011;22617;43.690;27.956;2023-06-10T18:07:13;11.55;;;6.43;;
18695;SDS011;22617;43.690;27.956;2023-06-10T18:12:18;9.77;;;5.90;;
18695;SDS011;22617;43.690;27.956;2023-06-10T18:17:22;12.15;;;6.32;;
18695;SDS011;22617;43.690;27.956;2023-06-10T18:22:28;18.02;;;8.20;;
18695;SDS011;22617;43.690;27.956;2023-06-10T18:27:33;8.43;;;5.70;;
18695;SDS011;22617;43.690;27.956;2023-06-10T18:32:37;6.75;;;5.57;;
18695;SDS011;22617;43.690;27.956;2023-06-10T18:37:41;8.70;;;5.90;;
18695;SDS011;22617;43.690;27.956;2023-06-10T18:42:47;16.73;;;6.82;;
18695;SDS011;22617;43.690;27.956;2023-06-10T18:47:50;11.43;;;6.10;;
18695;SDS011;22617;43.690;27.956;2023-06-10T18:52:59;9.35;;;5.40;;
18695;SDS011;22617;43.690;27.956;2023-06-10T18:58:05;9.30;;;6.15;;
18695;SDS011;22617;43.690;27.956;2023-06-10T19:03:08;10.32;;;5.85;;
18695;SDS011;22617;43.690;27.956;2023-06-10T19:08:12;9.38;;;5.93;;
18695;SDS011;22617;43.690;27.956;2023-06-10T19:13:18;7.22;;;5.35;;
18695;SDS011;22617;43.690;27.956;2023-06-10T19:18:22;7.45;;;5.72;;
18695;SDS011;22617;43.690;27.956;2023-06-10T19:23:25;8.07;;;4.95;;
18695;SDS011;22617;43.690;27.956;2023-06-10T19:28:31;10.25;;;6.45;;
18695;SDS011;22617;43.690;27.956;2023-06-10T19:33:35;8.57;;;5.30;;
18695;SDS011;22617;43.690;27.956;2023-06-10T19:38:38;10.20;;;6.93;;
18695;SDS011;22617;43.690;27.956;2023-06-10T19:43:44;11.27;;;6.75;;
18695;SDS011;22617;43.690;27.956;2023-06-10T19:48:48;7.40;;;5.90;;
18695;SDS011;22617;43.690;27.956;2023-06-10T19:53:52;7.63;;;5.75;;
18695;SDS011;22617;43.690;27.956;2023-06-10T19:58:57;11.05;;;6.80;;
18695;SDS011;22617;43.690;27.956;2023-06-10T20:04:01;11.02;;;6.40;;
18695;SDS011;22617;43.690;27.956;2023-06-10T20:09:06;8.65;;;6.20;;
18695;SDS011;22617;43.690;27.956;2023-06-10T20:14:12;12.18;;;6.45;;
18695;SDS011;22617;43.690;27.956;2023-06-10T20:19:16;7.30;;;5.38;;
18695;SDS011;22617;43.690;27.956;2023-06-10T20:24:20;7.57;;;5.32;;
18695;SDS011;22617;43.690;27.956;2023-06-10T20:29:25;6.80;;;4.97;;
18695;SDS011;22617;43.690;27.956;2023-06-10T20:34:29;7.95;;;5.35;;
18695;SDS011;22617;43.690;27.956;2023-06-10T20:39:33;7.45;;;5.38;;
18695;SDS011;22617;43.690;27.956;2023-06-10T20:44:38;8.77;;;5.30;;
18695;SDS011;22617;43.690;27.956;2023-06-10T20:49:42;7.72;;;5.30;;
18695;SDS011;22617;43.690;27.956;2023-06-10T20:54:46;11.57;;;5.78;;
18695;SDS011;22617;43.690;27.956;2023-06-10T20:59:51;9.15;;;6.00;;
18695;SDS011;22617;43.690;27.956;2023-06-10T21:04:55;8.77;;;5.38;;
18695;SDS011;22617;43.690;27.956;2023-06-10T21:10:01;11.48;;;6.40;;
18695;SDS011;22617;43.690;27.956;2023-06-10T21:15:07;6.93;;;4.97;;
18695;SDS011;22617;43.690;27.956;2023-06-10T21:20:12;8.95;;;5.25;;
18695;SDS011;22617;43.690;27.956;2023-06-10T21:25:18;12.27;;;5.72;;
18695;SDS011;22617;43.690;27.956;2023-06-10T21:30:23;8.50;;;5.60;;
18695;SDS011;22617;43.690;27.956;2023-06-10T21:35:27;10.70;;;6.20;;
18695;SDS011;22617;43.690;27.956;2023-06-10T21:40:31;9.73;;;6.70;;
18695;SDS011;22617;43.690;27.956;2023-06-10T21:45:36;11.60;;;6.60;;
18695;SDS011;22617;43.690;27.956;2023-06-10T21:50:40;6.03;;;4.85;;
18695;SDS011;22617;43.690;27.956;2023-06-10T21:55:44;11.10;;;4.70;;
18695;SDS011;22617;43.690;27.956;2023-06-10T22:00:49;11.43;;;6.50;;
18695;SDS011;22617;43.690;27.956;2023-06-10T22:05:54;13.57;;;6.60;;
18695;SDS011;22617;43.690;27.956;2023-06-10T22:11:02;12.50;;;7.40;;
18695;SDS011;22617;43.690;27.956;2023-06-10T22:16:08;9.40;;;6.55;;
18695;SDS011;22617;43.690;27.956;2023-06-10T22:21:12;9.70;;;6.20;;
18695;SDS011;22617;43.690;27.956;2023-06-10T22:26:16;9.38;;;6.25;;
18695;SDS011;22617;43.690;27.956;2023-06-10T22:31:21;8.30;;;5.68;;
18695;SDS011;22617;43.690;27.956;2023-06-10T22:36:26;8.95;;;6.72;;
18695;SDS011;22617;43.690;27.956;2023-06-10T22:41:30;9.73;;;6.93;;
18695;SDS011;22617;43.690;27.956;2023-06-10T22:46:37;7.97;;;5.85;;
18695;SDS011;22617;43.690;27.956;2023-06-10T22:51:40;10.77;;;6.85;;
18695;SDS011;22617;43.690;27.956;2023-06-10T22:56:45;11.52;;;6.93;;
18695;SDS011;22617;43.690;27.956;2023-06-10T23:01:50;10.68;;;7.40;;
18695;SDS011;22617;43.690;27.956;2023-06-10T23:06:54;14.60;;;7.70;;
18695;SDS011;22617;43.690;27.956;2023-06-10T23:11:58;12.40;;;6.05;;
18695;SDS011;22617;43.690;27.956;2023-06-10T23:17:03;7.35;;;5.80;;
18695;SDS011;22617;43.690;27.956;2023-06-10T23:22:07;10.32;;;6.80;;
18695;SDS011;22617;43.690;27.956;2023-06-10T23:27:11;9.75;;;6.03;;
18695;SDS011;22617;43.690;27.956;2023-06-10T23:32:23;11.30;;;6.10;;
18695;SDS011;22617;43.690;27.956;2023-06-10T23:37:28;8.73;;;6.50;;
18695;SDS011;22617;43.690;27.956;2023-06-10T23:42:32;7.07;;;5.80;;
18695;SDS011;22617;43.690;27.956;2023-06-10T23:47:37;8.40;;;5.90;;
18695;SDS011;22617;43.690;27.956;2023-06-10T23:52:41;8.70;;;6.68;;
18695;SDS011;22617;43.690;27.956;2023-06-10T23:57:45;9.90;;;6.27;;
